Time;durP1;ratioP1;P1;durP2;ratioP2;P2;SDS_P1;SDS_P2;PMS_P1;PMS_P2;Temp;Humidity;BMP_temperature;BMP_pressure;BME280_temperature;BME280_humidity;BME280_pressure;Samples;Min_cycle;Max_cycle;Signal;HPM_P1;HPM_P2
2021/12/15 00:02:40;;;;;;;24.95;13.48;;;;;;;;;;10343549;28;20211;-69
2021/12/15 00:07:41;;;;;;;22.98;13.95;;;;;;;;;;10333551;28;20180;-70
2021/12/15 00:12:42;;;;;;;24.00;15.13;;;;;;;;;;10340159;28;20337;-70
2021/12/15 00:17:43;;;;;;;27.70;15.50;;;;;;;;;;10343929;28;20208;-70
2021/12/15 00:22:45;;;;;;;26.25;15.30;;;;;;;;;;10341392;28;20834;-68
2021/12/15 00:27:46;;;;;;;25.45;14.30;;;;;;;;;;10346308;28;20188;-71
2021/12/15 00:32:48;;;;;;;25.15;14.70;;;;;;;;;;10353874;28;23786;-70
2021/12/15 00:37:49;;;;;;;22.58;13.48;;;;;;;;;;10333477;28;20220;-71
2021/12/15 00:42:50;;;;;;;23.02;14.82;;;;;;;;;;10334471;28;20261;-71
2021/12/15 00:47:52;;;;;;;24.25;14.43;;;;;;;;;;10350532;28;20501;-70
2021/12/15 00:52:53;;;;;;;22.98;13.48;;;;;;;;;;10341321;28;20220;-70
2021/12/15 00:57:54;;;;;;;25.55;13.73;;;;;;;;;;10342340;28;20351;-70
2021/12/15 01:02:56;;;;;;;26.95;15.02;;;;;;;;;;10340606;28;20212;-71
2021/12/15 01:07:58;;;;;;;25.42;15.38;;;;;;;;;;10343774;28;20210;-70
2021/12/15 01:23:29;;;;;;;23.63;13.95;;;;;;;;;;10342069;28;20259;-70
2021/12/15 01:28:30;;;;;;;28.83;14.02;;;;;;;;;;10366032;28;20654;-71
2021/12/15 01:33:32;;;;;;;24.73;14.77;;;;;;;;;;10366230;28;20216;-70
2021/12/15 01:38:35;;;;;;;26.13;13.90;;;;;;;;;;10331710;28;20557;-71
2021/12/15 01:49:06;;;;;;;23.88;13.45;;;;;;;;;;10333927;28;20302;-71
2021/12/15 01:54:07;;;;;;;23.05;13.95;;;;;;;;;;10334563;28;20208;-71
2021/12/15 01:59:09;;;;;;;21.45;12.98;;;;;;;;;;10341161;28;20661;-71
2021/12/15 02:04:10;;;;;;;22.70;13.18;;;;;;;;;;10371454;28;20218;-70
2021/12/15 02:09:13;;;;;;;22.17;12.88;;;;;;;;;;10354842;28;20231;-69
2021/12/15 02:14:15;;;;;;;18.63;12.18;;;;;;;;;;10372029;28;20180;-70
2021/12/15 02:19:16;;;;;;;16.92;11.88;;;;;;;;;;10380589;28;20211;-71
2021/12/15 02:24:17;;;;;;;17.13;11.35;;;;;;;;;;10373251;28;20934;-71
2021/12/15 02:29:20;;;;;;;16.33;10.30;;;;;;;;;;10398282;28;20239;-71
2021/12/15 02:39:24;;;;;;;13.48;9.38;;;;;;;;;;10341146;28;20195;-71
2021/12/15 02:44:26;;;;;;;14.85;9.70;;;;;;;;;;10334642;28;20269;-71
2021/12/15 02:49:28;;;;;;;11.45;9.43;;;;;;;;;;10336626;28;20232;-70
2021/12/15 02:54:29;;;;;;;10.25;8.43;;;;;;;;;;10330519;28;20215;-70
2021/12/15 02:59:38;;;;;;;9.85;8.75;;;;;;;;;;10331441;28;20184;-70
2021/12/15 03:04:45;;;;;;;11.40;8.50;;;;;;;;;;10338097;28;20282;-71
2021/12/15 03:20:08;;;;;;;11.20;8.65;;;;;;;;;;10394713;28;20662;-70
2021/12/15 03:25:09;;;;;;;11.93;8.77;;;;;;;;;;10380580;28;20294;-69
2021/12/15 03:35:46;;;;;;;12.18;8.48;;;;;;;;;;10341468;28;20227;-70
2021/12/15 03:40:47;;;;;;;10.60;8.57;;;;;;;;;;10336284;28;20262;-71
2021/12/15 03:45:50;;;;;;;10.30;8.13;;;;;;;;;;10355147;28;20231;-69
2021/12/15 03:50:52;;;;;;;8.75;7.85;;;;;;;;;;10373955;28;20211;-69
2021/12/15 03:55:54;;;;;;;10.07;7.43;;;;;;;;;;10366526;28;20220;-68
2021/12/15 04:01:03;;;;;;;8.27;7.45;;;;;;;;;;10370540;28;20274;-69
2021/12/15 04:06:06;;;;;;;9.13;7.57;;;;;;;;;;10344120;28;20659;-69
2021/12/15 04:11:08;;;;;;;9.73;7.88;;;;;;;;;;10351134;28;20208;-71
2021/12/15 04:16:25;;;;;;;11.20;8.27;;;;;;;;;;10344012;28;20208;-69
2021/12/15 04:21:27;;;;;;;11.55;8.07;;;;;;;;;;10345718;28;20212;-71
2021/12/15 04:26:29;;;;;;;10.10;8.13;;;;;;;;;;10348580;28;20624;-71
2021/12/15 04:31:31;;;;;;;9.20;7.95;;;;;;;;;;10336482;28;20232;-69
2021/12/15 04:36:34;;;;;;;10.98;8.98;;;;;;;;;;10340393;28;21148;-70
2021/12/15 04:41:35;;;;;;;12.77;9.88;;;;;;;;;;10331248;28;20812;-69
2021/12/15 04:46:37;;;;;;;13.25;9.77;;;;;;;;;;10333678;28;20920;-71
2021/12/15 04:51:38;;;;;;;12.80;9.77;;;;;;;;;;10336245;28;20303;-71
2021/12/15 04:56:39;;;;;;;14.80;11.10;;;;;;;;;;10340262;28;20287;-71
2021/12/15 05:01:40;;;;;;;13.52;10.38;;;;;;;;;;10334256;28;20227;-71
2021/12/15 05:06:41;;;;;;;14.15;10.60;;;;;;;;;;10339944;28;20181;-70
2021/12/15 05:11:44;;;;;;;13.18;9.63;;;;;;;;;;10333620;28;20254;-71
2021/12/15 05:16:45;;;;;;;12.35;8.60;;;;;;;;;;10351767;28;20262;-70
2021/12/15 05:21:49;;;;;;;10.15;8.43;;;;;;;;;;10337560;28;20210;-70
2021/12/15 05:26:50;;;;;;;11.30;8.82;;;;;;;;;;10337374;28;20783;-70
2021/12/15 05:31:52;;;;;;;12.43;9.20;;;;;;;;;;10348325;28;20223;-71
2021/12/15 05:36:54;;;;;;;11.77;9.27;;;;;;;;;;10326635;28;20184;-70
2021/12/15 05:41:55;;;;;;;11.45;9.35;;;;;;;;;;10330182;28;20181;-71
2021/12/15 05:46:58;;;;;;;12.43;8.30;;;;;;;;;;10329754;28;20216;-70
2021/12/15 05:51:59;;;;;;;10.40;7.72;;;;;;;;;;10329186;28;20223;-70
2021/12/15 05:57:00;;;;;;;8.50;7.65;;;;;;;;;;10325808;28;20790;-71
2021/12/15 06:02:02;;;;;;;9.95;7.93;;;;;;;;;;10337681;28;20306;-70
2021/12/15 06:07:04;;;;;;;8.95;7.90;;;;;;;;;;10339726;28;20258;-71
2021/12/15 06:12:05;;;;;;;7.78;6.97;;;;;;;;;;10352696;28;20246;-70
2021/12/15 06:17:09;;;;;;;8.27;7.43;;;;;;;;;;10350107;28;20754;-70
2021/12/15 06:22:11;;;;;;;8.02;7.22;;;;;;;;;;10325520;28;20718;-72
2021/12/15 06:27:18;;;;;;;8.63;6.82;;;;;;;;;;10341900;28;20652;-71
2021/12/15 06:32:20;;;;;;;7.00;6.18;;;;;;;;;;10341774;28;20256;-71
2021/12/15 06:37:21;;;;;;;10.18;6.80;;;;;;;;;;10339075;28;20188;-71
2021/12/15 06:42:22;;;;;;;6.22;5.72;;;;;;;;;;10335688;28;20177;-69
2021/12/15 07:03:04;;;;;;;8.20;7.32;;;;;;;;;;10345480;28;20212;-71
2021/12/15 07:08:06;;;;;;;8.10;7.30;;;;;;;;;;10350812;28;20182;-71
2021/12/15 07:13:08;;;;;;;8.88;7.53;;;;;;;;;;10346915;28;20213;-70
2021/12/15 07:18:11;;;;;;;8.77;7.88;;;;;;;;;;10336971;28;20215;-71
2021/12/15 07:23:13;;;;;;;11.13;9.07;;;;;;;;;;10330752;28;20195;-69
2021/12/15 07:28:16;;;;;;;11.73;8.57;;;;;;;;;;10338990;28;20253;-70
2021/12/15 07:33:17;;;;;;;11.00;8.38;;;;;;;;;;10346858;28;20223;-69
2021/12/15 07:38:18;;;;;;;10.95;8.45;;;;;;;;;;10351750;28;20207;-71
2021/12/15 07:43:25;;;;;;;10.18;8.38;;;;;;;;;;10373273;28;20370;-71
2021/12/15 07:48:28;;;;;;;8.10;7.13;;;;;;;;;;10368266;28;20809;-71
2021/12/15 07:53:29;;;;;;;10.80;8.50;;;;;;;;;;10344346;28;20204;-68
2021/12/15 07:58:30;;;;;;;9.32;7.13;;;;;;;;;;10344415;28;20280;-70
2021/12/15 08:03:32;;;;;;;10.15;8.52;;;;;;;;;;10377435;28;20727;-70
2021/12/15 08:08:33;;;;;;;8.32;7.22;;;;;;;;;;10389869;28;20633;-71
2021/12/15 08:13:35;;;;;;;7.95;7.03;;;;;;;;;;10386268;28;20171;-71
2021/12/15 08:18:36;;;;;;;10.02;7.97;;;;;;;;;;10384720;28;21041;-70
2021/12/15 08:23:37;;;;;;;8.55;7.50;;;;;;;;;;10384858;28;20230;-69
2021/12/15 08:28:38;;;;;;;7.13;6.43;;;;;;;;;;10382775;28;20278;-70
2021/12/15 08:33:39;;;;;;;7.93;7.13;;;;;;;;;;10383638;28;20220;-70
2021/12/15 08:38:43;;;;;;;7.03;6.43;;;;;;;;;;10387374;28;20201;-70
2021/12/15 08:43:44;;;;;;;8.13;6.57;;;;;;;;;;10380818;28;20176;-71
2021/12/15 08:48:46;;;;;;;7.75;6.95;;;;;;;;;;10385845;28;20212;-71
2021/12/15 08:53:47;;;;;;;6.95;6.18;;;;;;;;;;10383640;28;20663;-72
2021/12/15 08:58:48;;;;;;;8.15;7.35;;;;;;;;;;10387121;28;20187;-71
2021/12/15 09:03:49;;;;;;;8.20;7.43;;;;;;;;;;10384419;28;20710;-70
2021/12/15 09:08:51;;;;;;;7.72;6.82;;;;;;;;;;10388427;28;20933;-71
2021/12/15 09:14:00;;;;;;;10.50;8.40;;;;;;;;;;10384235;28;20177;-71
2021/12/15 09:19:26;;;;;;;9.73;7.90;;;;;;;;;;10390274;28;20685;-71
2021/12/15 09:24:27;;;;;;;9.13;7.50;;;;;;;;;;10386695;28;20285;-71
2021/12/15 09:29:28;;;;;;;11.02;8.40;;;;;;;;;;10387375;28;20207;-71
2021/12/15 09:34:30;;;;;;;11.57;8.07;;;;;;;;;;10390170;28;20215;-71
2021/12/15 09:39:31;;;;;;;9.95;8.68;;;;;;;;;;10385322;28;20176;-71
2021/12/15 09:44:33;;;;;;;11.27;9.00;;;;;;;;;;10390398;28;20194;-69
2021/12/15 10:05:59;;;;;;;8.25;7.13;;;;;;;;;;10378939;28;20212;-70
2021/12/15 10:21:41;;;;;;;8.57;7.43;;;;;;;;;;10380573;28;20513;-71
2021/12/15 10:26:56;;;;;;;8.98;6.85;;;;;;;;;;10383334;28;20191;-69
2021/12/15 10:31:59;;;;;;;7.47;6.78;;;;;;;;;;10381616;28;20226;-72
2021/12/15 10:37:00;;;;;;;7.78;6.57;;;;;;;;;;10382952;28;20195;-69
2021/12/15 10:42:01;;;;;;;7.00;6.50;;;;;;;;;;10385054;28;20722;-69
2021/12/15 10:47:07;;;;;;;6.80;6.20;;;;;;;;;;10377135;28;22488;-68
2021/12/15 10:52:10;;;;;;;6.30;5.53;;;;;;;;;;10395200;28;20215;-69
2021/12/15 10:57:13;;;;;;;6.43;5.82;;;;;;;;;;10381540;28;20698;-69
2021/12/15 11:02:24;;;;;;;6.10;5.53;;;;;;;;;;10382304;28;20649;-70
2021/12/15 11:07:31;;;;;;;6.30;5.70;;;;;;;;;;10382664;28;20200;-70
2021/12/15 11:12:37;;;;;;;5.90;5.50;;;;;;;;;;10381189;28;22682;-70
2021/12/15 11:17:40;;;;;;;5.50;5.00;;;;;;;;;;10380070;28;20605;-71
2021/12/15 11:22:44;;;;;;;5.05;4.65;;;;;;;;;;10380418;28;20234;-69
2021/12/15 11:27:50;;;;;;;4.68;4.47;;;;;;;;;;10381468;28;20192;-70
2021/12/15 11:32:52;;;;;;;5.47;4.95;;;;;;;;;;10379684;28;20231;-71
2021/12/15 11:37:58;;;;;;;5.88;5.47;;;;;;;;;;10376422;28;20252;-70
2021/12/15 11:42:59;;;;;;;7.30;6.65;;;;;;;;;;10383702;28;20186;-71
2021/12/15 11:48:14;;;;;;;8.07;7.28;;;;;;;;;;10383976;28;20211;-71
2021/12/15 11:53:29;;;;;;;6.45;5.50;;;;;;;;;;10378322;28;20853;-70
2021/12/15 11:58:31;;;;;;;8.23;5.78;;;;;;;;;;10380968;28;20203;-70
2021/12/15 12:03:32;;;;;;;8.20;6.22;;;;;;;;;;10373904;28;20733;-70
2021/12/15 12:08:33;;;;;;;6.35;5.75;;;;;;;;;;10380781;28;20184;-69
2021/12/15 12:13:39;;;;;;;5.97;5.53;;;;;;;;;;10379906;28;20699;-68
2021/12/15 12:18:40;;;;;;;7.57;6.80;;;;;;;;;;10377017;28;20957;-69
2021/12/15 12:23:45;;;;;;;4.93;4.57;;;;;;;;;;10381799;28;20216;-70
2021/12/15 12:28:47;;;;;;;3.95;3.65;;;;;;;;;;10387832;28;20183;-70
2021/12/15 12:33:49;;;;;;;3.83;3.25;;;;;;;;;;10402525;28;20304;-69
2021/12/15 12:38:52;;;;;;;4.07;3.88;;;;;;;;;;10383442;28;20187;-71
2021/12/15 12:43:54;;;;;;;5.65;3.42;;;;;;;;;;10386882;28;20620;-70
2021/12/15 12:57:58;;;;;;;3.35;3.25;;;;;;;;;;10382105;28;20246;-69
2021/12/15 12:59:52;;;;;;;3.75;3.55;;;;;;;;;;10385972;28;20199;-69
2021/12/15 13:05:09;;;;;;;4.35;4.05;;;;;;;;;;10386543;28;20698;-69
2021/12/15 13:10:10;;;;;;;4.05;3.85;;;;;;;;;;10378656;28;20211;-69
2021/12/15 13:15:11;;;;;;;4.10;3.92;;;;;;;;;;10388840;28;20279;-72
2021/12/15 13:20:26;;;;;;;3.42;3.13;;;;;;;;;;10392120;28;20206;-71
2021/12/15 13:31:04;;;;;;;3.72;3.45;;;;;;;;;;10393061;28;20209;-69
2021/12/15 13:36:10;;;;;;;3.53;3.38;;;;;;;;;;10390488;28;20176;-70
2021/12/15 13:41:19;;;;;;;3.38;3.17;;;;;;;;;;10391624;28;20186;-70
2021/12/15 13:46:30;;;;;;;3.65;3.40;;;;;;;;;;10391862;28;20277;-70
2021/12/15 13:51:49;;;;;;;3.58;3.47;;;;;;;;;;10390843;28;20276;-70
2021/12/15 13:56:52;;;;;;;3.67;3.50;;;;;;;;;;10387488;28;20211;-70
2021/12/15 14:02:13;;;;;;;2.88;2.78;;;;;;;;;;10390283;28;20184;-70
2021/12/15 14:07:29;;;;;;;2.85;2.75;;;;;;;;;;10392897;28;20179;-70
2021/12/15 14:12:51;;;;;;;2.78;2.58;;;;;;;;;;10391146;28;20219;-70
2021/12/15 14:17:56;;;;;;;2.78;2.67;;;;;;;;;;10385942;28;20176;-71
2021/12/15 14:22:58;;;;;;;2.90;2.80;;;;;;;;;;10392716;28;20203;-70
2021/12/15 14:28:23;;;;;;;2.95;2.80;;;;;;;;;;10392503;28;20207;-70
2021/12/15 14:33:30;;;;;;;2.88;2.60;;;;;;;;;;10391737;28;20821;-71
2021/12/15 14:38:39;;;;;;;2.80;2.70;;;;;;;;;;10392020;28;20192;-71
2021/12/15 14:43:40;;;;;;;2.92;2.83;;;;;;;;;;10387736;28;20180;-69
2021/12/15 14:48:41;;;;;;;2.45;2.35;;;;;;;;;;10390930;28;20184;-70
2021/12/15 14:53:43;;;;;;;2.97;2.85;;;;;;;;;;10381773;28;20204;-69
2021/12/15 14:58:44;;;;;;;3.03;2.92;;;;;;;;;;10388290;28;20394;-68
2021/12/15 15:04:05;;;;;;;3.15;3.05;;;;;;;;;;10388653;28;20302;-71
2021/12/15 15:09:11;;;;;;;3.10;3.00;;;;;;;;;;10388063;28;20215;-70
2021/12/15 15:14:12;;;;;;;2.97;2.88;;;;;;;;;;10385760;28;20289;-70
2021/12/15 15:19:17;;;;;;;3.08;2.97;;;;;;;;;;10386998;28;20619;-69
2021/12/15 15:24:29;;;;;;;2.67;2.58;;;;;;;;;;10385085;28;20686;-70
2021/12/15 15:29:33;;;;;;;3.17;3.08;;;;;;;;;;10378380;28;20889;-69
2021/12/15 15:34:34;;;;;;;4.32;4.13;;;;;;;;;;10379475;28;21079;-70
2021/12/15 15:39:35;;;;;;;5.20;4.75;;;;;;;;;;10379524;28;20187;-69
2021/12/15 15:44:39;;;;;;;4.22;3.92;;;;;;;;;;10381470;28;20223;-71
2021/12/15 15:49:47;;;;;;;3.70;3.50;;;;;;;;;;10382222;28;20234;-71
2021/12/15 15:54:48;;;;;;;3.55;3.30;;;;;;;;;;10377506;28;20223;-70
2021/12/15 15:59:51;;;;;;;3.20;3.10;;;;;;;;;;10380415;28;20638;-70
2021/12/15 16:04:52;;;;;;;3.60;3.35;;;;;;;;;;10384650;28;20272;-71
2021/12/15 16:09:54;;;;;;;4.65;4.45;;;;;;;;;;10386316;28;20234;-70
2021/12/15 16:14:55;;;;;;;4.75;4.43;;;;;;;;;;10385169;28;20225;-70
2021/12/15 16:20:14;;;;;;;5.50;5.13;;;;;;;;;;10384097;28;20871;-70
2021/12/15 16:25:27;;;;;;;5.22;4.95;;;;;;;;;;10381490;28;20677;-70
2021/12/15 16:30:33;;;;;;;6.05;5.55;;;;;;;;;;10382559;28;20265;-70
2021/12/15 16:35:37;;;;;;;5.22;4.95;;;;;;;;;;10385783;28;20246;-71
2021/12/15 16:40:48;;;;;;;5.32;5.05;;;;;;;;;;10366417;28;21192;-69
2021/12/15 16:45:50;;;;;;;5.75;5.43;;;;;;;;;;10385744;28;20233;-69
2021/12/15 16:51:00;;;;;;;6.32;5.82;;;;;;;;;;10380454;28;20211;-70
2021/12/15 16:56:01;;;;;;;7.03;6.47;;;;;;;;;;10383762;28;20555;-70
2021/12/15 17:01:02;;;;;;;6.43;5.93;;;;;;;;;;10381724;28;20779;-69
2021/12/15 17:06:03;;;;;;;8.80;7.90;;;;;;;;;;10385283;28;20175;-69
2021/12/15 17:11:08;;;;;;;9.68;8.55;;;;;;;;;;10382368;28;20678;-70
2021/12/15 17:16:11;;;;;;;17.23;12.30;;;;;;;;;;10383200;28;20211;-68
2021/12/15 17:21:12;;;;;;;12.70;10.95;;;;;;;;;;10380510;28;20195;-69
2021/12/15 17:26:18;;;;;;;11.90;10.63;;;;;;;;;;10381598;28;20192;-69
2021/12/15 17:31:20;;;;;;;5.95;5.47;;;;;;;;;;10380676;28;20377;-71
2021/12/15 17:36:39;;;;;;;13.07;11.98;;;;;;;;;;10381705;28;20192;-70
2021/12/15 17:41:52;;;;;;;7.18;6.53;;;;;;;;;;10386219;28;20187;-70
2021/12/15 17:47:05;;;;;;;6.28;5.88;;;;;;;;;;10382529;28;20295;-70
2021/12/15 17:52:11;;;;;;;6.38;5.90;;;;;;;;;;10383550;28;21043;-69
2021/12/15 17:57:13;;;;;;;6.80;6.28;;;;;;;;;;10376787;28;20199;-68
2021/12/15 18:02:15;;;;;;;8.50;7.70;;;;;;;;;;10380774;28;20684;-72
2021/12/15 18:07:16;;;;;;;42.63;24.15;;;;;;;;;;10381762;28;20566;-70
2021/12/15 18:12:20;;;;;;;26.95;17.98;;;;;;;;;;10377826;28;20203;-70
2021/12/15 18:17:22;;;;;;;9.23;8.43;;;;;;;;;;10381103;28;20208;-69
2021/12/15 18:22:23;;;;;;;11.20;10.13;;;;;;;;;;10380826;28;20211;-71
2021/12/15 18:27:24;;;;;;;9.15;8.25;;;;;;;;;;10380028;28;20186;-69
2021/12/15 18:32:26;;;;;;;8.07;7.47;;;;;;;;;;10378605;28;20222;-70
2021/12/15 18:37:28;;;;;;;8.13;7.40;;;;;;;;;;10378338;28;20652;-69
2021/12/15 18:42:30;;;;;;;8.57;7.78;;;;;;;;;;10381056;28;20699;-69
2021/12/15 18:47:31;;;;;;;8.95;8.15;;;;;;;;;;10379657;28;20717;-69
2021/12/15 18:52:32;;;;;;;9.15;8.13;;;;;;;;;;10379042;28;20396;-70
2021/12/15 18:57:33;;;;;;;9.75;8.75;;;;;;;;;;10380994;28;20703;-68
2021/12/15 19:02:35;;;;;;;10.10;8.73;;;;;;;;;;10378736;28;20640;-69
2021/12/15 19:07:36;;;;;;;10.07;8.82;;;;;;;;;;10380004;28;20206;-70
2021/12/15 19:12:37;;;;;;;10.95;9.82;;;;;;;;;;10382079;28;20196;-70
2021/12/15 19:17:38;;;;;;;10.77;9.60;;;;;;;;;;10378911;28;20227;-70
2021/12/15 19:22:40;;;;;;;14.00;10.93;;;;;;;;;;10376999;28;20203;-70
2021/12/15 19:27:41;;;;;;;14.70;11.73;;;;;;;;;;10381729;28;20191;-68
2021/12/15 19:32:42;;;;;;;11.82;10.60;;;;;;;;;;10380753;28;20593;-71
2021/12/15 19:37:43;;;;;;;13.30;10.20;;;;;;;;;;10386419;28;20191;-71
2021/12/15 19:42:44;;;;;;;17.05;11.07;;;;;;;;;;10387508;28;20742;-68
2021/12/15 19:47:45;;;;;;;16.90;11.15;;;;;;;;;;10386888;28;20219;-69
2021/12/15 19:52:47;;;;;;;15.75;12.23;;;;;;;;;;10390481;28;20290;-69
2021/12/15 19:57:48;;;;;;;18.02;12.15;;;;;;;;;;10382536;28;20234;-68
2021/12/15 20:02:49;;;;;;;21.42;12.45;;;;;;;;;;10382847;28;20211;-68
2021/12/15 20:07:51;;;;;;;19.17;13.32;;;;;;;;;;10386933;28;20279;-68
2021/12/15 20:12:54;;;;;;;21.92;13.30;;;;;;;;;;10382393;28;20302;-71
2021/12/15 20:17:55;;;;;;;20.48;13.82;;;;;;;;;;10381937;28;21236;-71
2021/12/15 20:22:56;;;;;;;22.27;14.18;;;;;;;;;;10379510;28;20257;-68
2021/12/15 20:27:57;;;;;;;28.63;16.20;;;;;;;;;;10376215;28;20193;-71
2021/12/15 20:32:59;;;;;;;22.58;14.63;;;;;;;;;;10382617;28;20226;-69
2021/12/15 20:38:02;;;;;;;21.52;14.05;;;;;;;;;;10382241;28;20222;-70
2021/12/15 20:43:04;;;;;;;22.65;14.45;;;;;;;;;;10381282;28;20184;-69
2021/12/15 20:48:05;;;;;;;23.92;14.38;;;;;;;;;;10373129;28;20257;-69
2021/12/15 20:53:08;;;;;;;23.58;14.98;;;;;;;;;;10374500;28;20211;-68
2021/12/15 20:58:10;;;;;;;22.60;15.18;;;;;;;;;;10374775;28;20975;-70
2021/12/15 21:03:11;;;;;;;23.35;14.02;;;;;;;;;;10373753;28;20212;-70
2021/12/15 21:08:12;;;;;;;26.90;15.75;;;;;;;;;;10371086;28;20214;-71
2021/12/15 21:13:14;;;;;;;22.63;14.52;;;;;;;;;;10381107;28;20230;-68
2021/12/15 21:18:15;;;;;;;19.98;14.32;;;;;;;;;;10377730;28;20212;-69
2021/12/15 21:23:17;;;;;;;24.13;15.15;;;;;;;;;;10380423;28;20225;-71
2021/12/15 21:28:21;;;;;;;25.58;14.85;;;;;;;;;;10379983;28;20202;-69
2021/12/15 21:33:22;;;;;;;25.65;15.75;;;;;;;;;;10379384;28;20223;-68
2021/12/15 21:38:25;;;;;;;27.55;15.93;;;;;;;;;;10379046;28;20191;-71
2021/12/15 21:43:26;;;;;;;26.88;16.08;;;;;;;;;;10377168;28;20206;-70
2021/12/15 21:48:28;;;;;;;27.92;16.40;;;;;;;;;;10379648;28;20212;-69
2021/12/15 21:53:29;;;;;;;31.05;16.40;;;;;;;;;;10379541;28;20211;-71
2021/12/15 21:58:30;;;;;;;31.42;16.35;;;;;;;;;;10379429;28;20195;-70
2021/12/15 22:03:33;;;;;;;29.42;16.63;;;;;;;;;;10378441;28;20207;-69
2021/12/15 22:08:37;;;;;;;29.38;16.55;;;;;;;;;;10378949;28;20175;-70
2021/12/15 22:13:39;;;;;;;28.05;16.98;;;;;;;;;;10381956;28;20628;-71
2021/12/15 22:18:43;;;;;;;29.55;17.88;;;;;;;;;;10377784;28;20730;-71
2021/12/15 22:23:47;;;;;;;33.33;18.05;;;;;;;;;;10379236;28;20270;-70
2021/12/15 22:28:48;;;;;;;32.80;16.92;;;;;;;;;;10378500;28;21305;-71
2021/12/15 22:33:49;;;;;;;31.90;17.38;;;;;;;;;;10375140;28;20223;-70
2021/12/15 22:38:50;;;;;;;32.45;18.50;;;;;;;;;;10379950;28;20184;-68
2021/12/15 22:43:51;;;;;;;36.30;19.40;;;;;;;;;;10379581;28;20179;-69
2021/12/15 22:48:52;;;;;;;37.25;18.75;;;;;;;;;;10377549;28;20819;-69
2021/12/15 22:53:53;;;;;;;35.88;19.65;;;;;;;;;;10375382;28;20779;-69
2021/12/15 22:58:54;;;;;;;35.42;19.30;;;;;;;;;;10379085;28;20215;-70
2021/12/15 23:03:57;;;;;;;39.25;20.20;;;;;;;;;;10382314;28;20276;-71
2021/12/15 23:08:58;;;;;;;37.20;19.67;;;;;;;;;;10380406;28;20726;-71
2021/12/15 23:14:00;;;;;;;34.15;17.88;;;;;;;;;;10375564;28;21031;-71
2021/12/15 23:19:01;;;;;;;31.15;17.23;;;;;;;;;;10377648;28;20235;-71
2021/12/15 23:24:02;;;;;;;32.38;16.88;;;;;;;;;;10380376;28;20302;-70
2021/12/15 23:29:04;;;;;;;30.88;15.52;;;;;;;;;;10379356;28;20183;-68
2021/12/15 23:34:08;;;;;;;29.58;15.80;;;;;;;;;;10376681;28;20227;-70
2021/12/15 23:39:33;;;;;;;32.15;16.42;;;;;;;;;;10377968;28;20243;-71
